Airport ID:KCCB
Update Time (UTC):19/01/2019 21:17
Wind Speed (Knots):5
Wind Direction (Magnetic):210
Temperature (°C):21.3
Dew Point (°C):2.9
Humidity (%):29.8
Altimeter (inHg):30.22
Density Altitude (Feet):
Visibility (Miles):10
Clouds (Hundreds of feet):CLR
Present Weather:
METAR:METAR KCCB 192115Z AUTO 23005KT 10SM CLR 21/03 A3022 RMK AO2

The data displayed is for advisory purposes only and is not to be used for flight planning or operations.

This page is not automatically refreshed. Reload the page to see current data.